Time;durP1;ratioP1;P1;durP2;ratioP2;P2;SDS_P1;SDS_P2;PMS_P1;PMS_P2;Temp;Humidity;BMP_temperature;BMP_pressure;BME280_temperature;BME280_humidity;BME280_pressure;Samples;Min_cycle;Max_cycle;Signal;HPM_P1;HPM_P2
2024/01/24 00:01:47;;;;;;;12.95;5.28;;;10.60;99.90;;;;;;5107643;28;20055;-63
2024/01/24 00:04:13;;;;;;;16.13;4.05;;;10.70;99.90;;;;;;5090619;28;20052;-62
2024/01/24 00:06:39;;;;;;;17.40;4.78;;;10.70;99.90;;;;;;5089938;28;20040;-63
2024/01/24 00:09:05;;;;;;;16.73;4.32;;;10.80;99.90;;;;;;5090959;28;20055;-63
2024/01/24 00:11:31;;;;;;;15.80;5.00;;;10.70;99.90;;;;;;5072802;28;20032;-62
2024/01/24 00:13:57;;;;;;;18.67;5.10;;;10.70;99.90;;;;;;5107376;28;20105;-62
2024/01/24 00:16:22;;;;;;;13.43;5.13;;;10.80;99.90;;;;;;5107355;28;20479;-62
2024/01/24 00:18:48;;;;;;;18.08;4.93;;;10.80;99.90;;;;;;5108130;28;20109;-62
2024/01/24 00:21:15;;;;;;;18.48;6.10;;;10.80;99.90;;;;;;5110886;28;20039;-62
2024/01/24 00:23:40;;;;;;;16.63;5.03;;;10.80;99.90;;;;;;5111681;28;20127;-62
2024/01/24 00:26:07;;;;;;;15.13;5.30;;;10.90;99.90;;;;;;5094953;28;20119;-62
2024/01/24 00:28:33;;;;;;;15.52;4.80;;;10.80;99.90;;;;;;5110921;28;20089;-62
2024/01/24 00:31:00;;;;;;;18.42;5.63;;;10.90;99.90;;;;;;5077642;28;20039;-62
2024/01/24 00:33:30;;;;;;;19.25;4.28;;;10.80;99.90;;;;;;5093598;28;20047;-63
2024/01/24 00:35:55;;;;;;;15.95;4.53;;;10.80;99.90;;;;;;5094726;28;20031;-63
2024/01/24 00:38:21;;;;;;;16.38;4.35;;;10.80;99.90;;;;;;5094248;28;20039;-62
2024/01/24 00:40:47;;;;;;;27.00;7.53;;;10.80;99.90;;;;;;5093125;28;20092;-63
2024/01/24 00:43:13;;;;;;;24.45;5.25;;;10.90;99.90;;;;;;5094396;28;20052;-63
2024/01/24 00:45:39;;;;;;;23.30;5.18;;;10.90;99.90;;;;;;5111036;28;20051;-63
2024/01/24 00:48:06;;;;;;;14.23;4.57;;;10.80;99.90;;;;;;5093427;28;20044;-63
2024/01/24 00:50:32;;;;;;;17.70;4.22;;;10.80;99.90;;;;;;5093760;28;20048;-62
2024/01/24 00:53:03;;;;;;;19.90;4.80;;;10.80;99.90;;;;;;5094319;28;20040;-63
2024/01/24 00:55:30;;;;;;;20.75;5.65;;;10.80;99.90;;;;;;5093496;28;20400;-63
2024/01/24 00:57:56;;;;;;;16.13;4.78;;;10.70;99.90;;;;;;5093796;28;20040;-63
2024/01/24 01:00:22;;;;;;;16.13;4.53;;;10.80;99.90;;;;;;5093822;28;20149;-63
2024/01/24 01:02:49;;;;;;;18.83;4.80;;;10.80;99.90;;;;;;5093002;28;20086;-63
2024/01/24 01:05:15;;;;;;;18.88;5.13;;;10.70;99.90;;;;;;5093796;28;20040;-63
2024/01/24 01:07:42;;;;;;;14.85;4.05;;;10.70;99.90;;;;;;5093387;28;20035;-63
2024/01/24 01:10:08;;;;;;;17.00;4.13;;;10.70;99.90;;;;;;5093022;28;20093;-63
2024/01/24 01:12:34;;;;;;;17.75;5.03;;;10.70;99.90;;;;;;5093671;28;20118;-62
2024/01/24 01:15:00;;;;;;;25.38;4.88;;;10.70;99.90;;;;;;5093509;28;20132;-62
2024/01/24 01:17:27;;;;;;;16.63;5.30;;;10.80;99.90;;;;;;5092677;28;20046;-62
2024/01/24 01:19:54;;;;;;;15.27;3.83;;;10.80;99.90;;;;;;5110542;28;20040;-63
2024/01/24 01:22:21;;;;;;;14.02;4.40;;;10.80;99.90;;;;;;5110375;28;20075;-63
2024/01/24 01:24:46;;;;;;;20.42;4.43;;;10.80;99.90;;;;;;5093838;28;20094;-63
2024/01/24 01:27:12;;;;;;;16.38;4.10;;;10.90;99.90;;;;;;5093178;28;20028;-62
2024/01/24 01:29:39;;;;;;;12.05;3.70;;;10.80;99.90;;;;;;5091623;28;20041;-62
2024/01/24 01:32:05;;;;;;;14.77;4.20;;;10.90;99.90;;;;;;5093523;28;20054;-62
2024/01/24 01:34:31;;;;;;;13.93;4.72;;;10.80;99.90;;;;;;5094057;28;20035;-62
2024/01/24 01:36:57;;;;;;;15.73;4.45;;;10.90;99.90;;;;;;5093825;28;20032;-62
2024/01/24 01:39:24;;;;;;;20.13;3.60;;;10.90;99.90;;;;;;5076268;28;20024;-63
2024/01/24 01:41:49;;;;;;;18.80;4.15;;;11.00;99.90;;;;;;5110250;28;20059;-62
2024/01/24 01:44:15;;;;;;;14.43;4.57;;;11.00;99.90;;;;;;5092129;28;20477;-62
2024/01/24 01:46:43;;;;;;;13.23;4.00;;;11.10;99.90;;;;;;5092478;28;20040;-62
2024/01/24 01:49:09;;;;;;;15.73;3.50;;;11.10;99.90;;;;;;5093032;28;20075;-62
2024/01/24 01:51:36;;;;;;;13.48;3.58;;;11.20;99.90;;;;;;5092251;28;20051;-62
2024/01/24 01:54:03;;;;;;;22.33;4.90;;;11.20;99.90;;;;;;5093080;28;20044;-62
2024/01/24 01:56:29;;;;;;;12.48;3.65;;;11.20;99.90;;;;;;5092831;28;20060;-62
2024/01/24 01:58:58;;;;;;;13.50;3.30;;;11.10;99.90;;;;;;5092039;28;20051;-62
2024/01/24 02:01:24;;;;;;;13.68;3.25;;;11.10;99.90;;;;;;5092934;28;20054;-62
2024/01/24 02:03:50;;;;;;;13.05;3.83;;;11.20;99.90;;;;;;5092488;28;20115;-62
2024/01/24 02:06:16;;;;;;;13.15;3.80;;;11.10;99.90;;;;;;5091885;28;20044;-63
2024/01/24 02:08:43;;;;;;;10.75;3.58;;;11.20;99.90;;;;;;5092543;28;20040;-63
2024/01/24 02:11:10;;;;;;;10.80;3.20;;;11.20;99.90;;;;;;5075612;28;20035;-62
2024/01/24 02:13:36;;;;;;;14.85;3.10;;;11.10;99.90;;;;;;5091579;28;20047;-62
2024/01/24 02:16:06;;;;;;;8.70;2.83;;;11.20;99.90;;;;;;5092778;28;20051;-63
2024/01/24 02:18:32;;;;;;;10.27;2.70;;;11.10;99.90;;;;;;5092194;28;20028;-62
2024/01/24 02:20:58;;;;;;;11.52;2.85;;;11.10;99.90;;;;;;5091407;28;20127;-62
2024/01/24 02:23:25;;;;;;;12.77;3.50;;;11.10;99.90;;;;;;5091627;28;20135;-62
2024/01/24 02:25:52;;;;;;;18.23;5.03;;;11.10;99.90;;;;;;5091307;28;20484;-62
2024/01/24 02:28:19;;;;;;;12.63;2.97;;;11.10;99.90;;;;;;5092091;28;20032;-62
2024/01/24 02:30:45;;;;;;;11.90;3.40;;;11.00;99.90;;;;;;5092001;28;20047;-62
2024/01/24 02:33:11;;;;;;;17.63;4.68;;;11.00;99.90;;;;;;5091402;28;20083;-62
2024/01/24 02:35:37;;;;;;;11.70;3.13;;;11.00;99.90;;;;;;5091788;28;20040;-62
2024/01/24 02:38:03;;;;;;;17.67;4.45;;;11.10;99.90;;;;;;5092151;28;20048;-62
2024/01/24 02:40:29;;;;;;;14.98;4.55;;;11.00;99.90;;;;;;5090761;28;20448;-62
2024/01/24 02:42:56;;;;;;;12.07;3.50;;;11.00;99.90;;;;;;5091134;28;20043;-62
2024/01/24 02:45:22;;;;;;;11.07;2.67;;;11.00;99.90;;;;;;5091699;28;20531;-62
2024/01/24 02:47:48;;;;;;;11.45;3.05;;;10.90;99.90;;;;;;5090988;28;20043;-63
2024/01/24 02:50:14;;;;;;;13.23;3.92;;;10.90;99.90;;;;;;5091757;28;20036;-62
2024/01/24 02:52:39;;;;;;;10.60;2.70;;;10.80;99.90;;;;;;5092108;28;20042;-63
2024/01/24 02:55:07;;;;;;;16.00;3.13;;;10.80;99.90;;;;;;5092460;28;20512;-62
2024/01/24 02:57:36;;;;;;;10.57;4.45;;;10.80;99.90;;;;;;5074438;28;20038;-62
2024/01/24 03:00:01;;;;;;;10.27;3.53;;;10.70;99.90;;;;;;5091513;28;20044;-62
2024/01/24 03:02:27;;;;;;;8.98;3.20;;;10.60;99.90;;;;;;5107851;28;20546;-62
2024/01/24 03:04:53;;;;;;;11.65;4.25;;;10.70;99.90;;;;;;5091459;28;20042;-63
2024/01/24 03:07:20;;;;;;;11.05;3.20;;;10.60;99.90;;;;;;5108484;28;20051;-62
2024/01/24 03:09:46;;;;;;;12.95;3.53;;;10.60;99.90;;;;;;5107442;28;20048;-62
2024/01/24 03:12:12;;;;;;;12.00;3.55;;;10.60;99.90;;;;;;5091430;28;20366;-62
2024/01/24 03:14:37;;;;;;;13.65;4.00;;;10.60;99.90;;;;;;5091325;28;20396;-62
2024/01/24 03:17:04;;;;;;;11.00;3.60;;;10.60;99.90;;;;;;5090631;28;20044;-62
2024/01/24 03:19:30;;;;;;;14.55;4.13;;;10.60;99.90;;;;;;5074187;28;20058;-62
2024/01/24 03:21:57;;;;;;;13.02;3.50;;;10.70;99.90;;;;;;5091424;28;20111;-62
2024/01/24 03:24:23;;;;;;;15.52;3.85;;;10.70;99.90;;;;;;5090275;28;20032;-62
2024/01/24 03:26:49;;;;;;;16.88;4.20;;;10.70;99.90;;;;;;5090720;28;20044;-63
2024/01/24 03:29:14;;;;;;;20.70;4.45;;;10.60;99.90;;;;;;5090255;28;20458;-62
2024/01/24 03:31:44;;;;;;;28.30;4.78;;;10.70;99.90;;;;;;5108545;28;20481;-62
2024/01/24 03:34:13;;;;;;;15.18;4.70;;;10.60;99.90;;;;;;5090857;28;20079;-62
2024/01/24 03:36:39;;;;;;;13.32;4.25;;;10.70;99.90;;;;;;5089751;28;20047;-62
2024/01/24 03:39:04;;;;;;;17.48;4.13;;;10.70;99.90;;;;;;5091130;28;20048;-62
2024/01/24 03:41:30;;;;;;;15.40;3.88;;;10.70;99.90;;;;;;5090551;28;20048;-62
2024/01/24 03:43:56;;;;;;;16.90;4.68;;;10.70;99.90;;;;;;5090719;28;20400;-62
2024/01/24 03:46:22;;;;;;;17.10;4.05;;;10.70;99.90;;;;;;5090636;28;20557;-62
2024/01/24 03:48:48;;;;;;;15.02;3.80;;;10.70;99.90;;;;;;5090852;28;20044;-62
2024/01/24 03:51:14;;;;;;;18.52;6.53;;;10.70;99.90;;;;;;5073113;28;20040;-62
2024/01/24 03:53:40;;;;;;;20.00;4.57;;;10.80;99.90;;;;;;5091665;28;20400;-62
2024/01/24 03:56:06;;;;;;;15.02;4.15;;;10.70;99.90;;;;;;5090812;28;20104;-62
2024/01/24 03:58:32;;;;;;;13.98;4.50;;;10.70;99.90;;;;;;5088853;28;20484;-61
2024/01/24 04:00:58;;;;;;;16.92;5.03;;;10.70;99.90;;;;;;5090995;28;20104;-62
2024/01/24 04:03:24;;;;;;;17.25;4.80;;;10.70;99.90;;;;;;5091025;28;20430;-62
2024/01/24 04:05:50;;;;;;;14.75;4.50;;;10.80;99.90;;;;;;5089964;28;20052;-62
2024/01/24 04:08:16;;;;;;;17.83;5.55;;;10.80;99.90;;;;;;5090259;28;20538;-62
2024/01/24 04:10:41;;;;;;;15.27;4.05;;;10.80;99.90;;;;;;5090470;28;20053;-62
2024/01/24 04:13:08;;;;;;;18.83;4.93;;;10.80;99.90;;;;;;5090247;28;20044;-62
2024/01/24 04:15:35;;;;;;;16.05;5.70;;;10.70;99.90;;;;;;5107167;28;20521;-62
2024/01/24 04:18:00;;;;;;;16.02;4.57;;;10.70;99.90;;;;;;5091143;28;20047;-62
2024/01/24 04:20:27;;;;;;;22.95;5.60;;;10.80;99.90;;;;;;5073151;28;20480;-62
2024/01/24 04:22:53;;;;;;;19.42;5.10;;;10.70;99.90;;;;;;5090400;28;20040;-62
2024/01/24 04:25:19;;;;;;;19.33;4.97;;;10.70;99.90;;;;;;5091331;28;20051;-62
2024/01/24 04:27:46;;;;;;;25.95;5.97;;;10.60;99.90;;;;;;5073318;28;20040;-62
2024/01/24 04:30:12;;;;;;;16.75;5.05;;;10.60;99.90;;;;;;5107308;28;20071;-62
2024/01/24 04:32:37;;;;;;;21.10;5.85;;;10.50;99.90;;;;;;5089635;28;20036;-63
2024/01/24 04:35:03;;;;;;;20.58;5.95;;;10.50;99.90;;;;;;5090964;28;20047;-62
2024/01/24 04:37:29;;;;;;;21.17;5.32;;;10.40;99.90;;;;;;5089786;28;20515;-62
2024/01/24 04:39:55;;;;;;;20.00;5.68;;;10.40;99.90;;;;;;5089625;28;20075;-62
2024/01/24 04:42:21;;;;;;;20.90;5.95;;;10.40;99.90;;;;;;5090539;28;20119;-63
2024/01/24 04:44:48;;;;;;;20.10;6.88;;;10.30;99.90;;;;;;5090631;28;20048;-62
2024/01/24 04:47:14;;;;;;;18.63;7.15;;;10.20;99.90;;;;;;5089509;28;20042;-62
2024/01/24 04:49:40;;;;;;;23.85;6.75;;;10.20;99.90;;;;;;5091292;28;20426;-62
2024/01/24 04:52:08;;;;;;;26.58;6.07;;;10.20;99.90;;;;;;5090172;28;20043;-62
2024/01/24 04:54:34;;;;;;;27.65;5.88;;;10.20;99.90;;;;;;5089279;28;20103;-62
2024/01/24 04:57:04;;;;;;;24.83;6.10;;;10.20;99.90;;;;;;5090514;28;20476;-62
2024/01/24 04:59:30;;;;;;;16.85;6.18;;;10.10;99.90;;;;;;5090828;28;20291;-62
2024/01/24 05:01:56;;;;;;;21.83;7.22;;;10.10;99.90;;;;;;5089491;28;20047;-62
2024/01/24 05:04:22;;;;;;;27.27;7.22;;;10.10;99.90;;;;;;5090061;28;20040;-62
2024/01/24 05:06:49;;;;;;;32.10;6.75;;;10.20;99.90;;;;;;5076995;28;20107;-62
2024/01/24 05:09:15;;;;;;;22.65;6.30;;;10.20;99.90;;;;;;5092993;28;20031;-62
2024/01/24 05:11:42;;;;;;;24.58;7.30;;;10.20;99.90;;;;;;5095296;28;20393;-62
2024/01/24 05:14:08;;;;;;;36.20;7.97;;;10.30;99.90;;;;;;5094986;28;20405;-62
2024/01/24 05:16:33;;;;;;;22.27;7.75;;;10.20;99.90;;;;;;5092827;28;20553;-62
2024/01/24 05:18:59;;;;;;;22.48;6.80;;;10.30;99.90;;;;;;5093748;28;20181;-62
2024/01/24 05:21:25;;;;;;;34.47;8.85;;;10.20;99.90;;;;;;5093439;28;20043;-62
2024/01/24 05:23:52;;;;;;;38.30;8.18;;;10.20;99.90;;;;;;5092906;28;20400;-62
2024/01/24 05:26:18;;;;;;;31.50;8.63;;;10.20;99.90;;;;;;5075719;28;20032;-62
2024/01/24 05:28:44;;;;;;;24.08;8.20;;;10.20;99.90;;;;;;5092409;28;20489;-62
2024/01/24 05:31:11;;;;;;;26.55;8.60;;;10.20;99.90;;;;;;5093372;28;20047;-62
2024/01/24 05:33:37;;;;;;;32.45;9.38;;;10.10;99.90;;;;;;5094461;28;20451;-62
2024/01/24 05:36:03;;;;;;;25.95;8.85;;;10.10;99.90;;;;;;5093082;28;20389;-62
2024/01/24 05:38:29;;;;;;;28.00;8.57;;;10.00;99.90;;;;;;5094054;28;20063;-62
2024/01/24 05:40:58;;;;;;;36.00;8.27;;;10.00;99.90;;;;;;5110662;28;20097;-62
2024/01/24 05:43:24;;;;;;;38.95;11.68;;;10.00;99.90;;;;;;5092267;28;20489;-62
2024/01/24 05:45:51;;;;;;;27.90;8.23;;;10.00;99.90;;;;;;5109819;28;20500;-62
2024/01/24 05:48:18;;;;;;;27.95;7.50;;;9.90;99.90;;;;;;5109594;28;20046;-62
2024/01/24 05:50:44;;;;;;;29.33;8.55;;;9.90;99.90;;;;;;5091633;28;20489;-62
2024/01/24 05:53:09;;;;;;;41.15;8.52;;;10.00;99.90;;;;;;5092835;28;20447;-62
2024/01/24 05:55:39;;;;;;;26.20;8.70;;;10.00;99.90;;;;;;5092813;28;20048;-62
2024/01/24 05:58:05;;;;;;;29.90;7.28;;;9.90;99.90;;;;;;5109096;28;20568;-62
2024/01/24 06:00:32;;;;;;;26.27;8.15;;;9.90;99.90;;;;;;5092228;28;20184;-62
2024/01/24 06:02:58;;;;;;;29.38;7.95;;;10.00;99.90;;;;;;5092696;28;20076;-62
2024/01/24 06:05:24;;;;;;;27.92;8.60;;;9.90;99.90;;;;;;5089470;28;20085;-61
2024/01/24 06:07:50;;;;;;;31.08;7.55;;;9.80;99.90;;;;;;5072309;28;20113;-62
2024/01/24 06:10:17;;;;;;;34.38;8.95;;;9.80;99.90;;;;;;5092093;28;20083;-62
2024/01/24 06:12:44;;;;;;;22.02;6.93;;;9.90;99.90;;;;;;5074727;28;20465;-62
2024/01/24 06:15:10;;;;;;;36.50;9.35;;;9.90;99.90;;;;;;5092548;28;20059;-62
2024/01/24 06:17:36;;;;;;;30.33;8.65;;;9.80;99.90;;;;;;5109510;28;20036;-61
2024/01/24 06:20:02;;;;;;;32.08;8.95;;;9.80;99.90;;;;;;5092964;28;20032;-61
2024/01/24 06:22:28;;;;;;;20.25;8.10;;;9.80;99.90;;;;;;5109441;28;20047;-62
2024/01/24 06:24:55;;;;;;;34.08;10.15;;;9.70;99.90;;;;;;5108321;28;20542;-62
2024/01/24 06:27:21;;;;;;;36.65;10.20;;;9.60;99.90;;;;;;5092154;28;20047;-62
2024/01/24 06:29:46;;;;;;;30.25;8.55;;;9.60;99.90;;;;;;5109114;28;20040;-62
2024/01/24 06:32:12;;;;;;;33.78;8.82;;;9.50;99.90;;;;;;5090987;28;20036;-61
2024/01/24 06:34:38;;;;;;;37.95;8.20;;;9.50;99.90;;;;;;5075138;28;20040;-61
2024/01/24 06:37:04;;;;;;;30.45;8.85;;;9.50;99.90;;;;;;5092262;28;20039;-61
2024/01/24 06:39:29;;;;;;;33.97;8.00;;;9.50;99.90;;;;;;5089826;28;20040;-62
2024/01/24 06:41:56;;;;;;;30.98;8.32;;;9.50;99.90;;;;;;5091737;28;20040;-61
2024/01/24 06:44:23;;;;;;;36.63;8.20;;;9.50;99.90;;;;;;5108772;28;20036;-62
2024/01/24 06:46:49;;;;;;;33.78;7.85;;;9.40;99.90;;;;;;5073989;28;20040;-62
2024/01/24 06:49:14;;;;;;;25.27;8.32;;;9.40;99.90;;;;;;5108381;28;20093;-62
2024/01/24 06:51:40;;;;;;;24.83;8.88;;;9.40;99.90;;;;;;5074692;28;20040;-62
2024/01/24 06:54:08;;;;;;;35.00;9.43;;;9.50;99.90;;;;;;5108042;28;20078;-60
2024/01/24 06:56:35;;;;;;;34.45;9.75;;;9.40;99.90;;;;;;5091708;28;20051;-62
2024/01/24 06:59:02;;;;;;;31.77;9.27;;;9.50;99.90;;;;;;5091773;28;20067;-61
2024/01/24 07:01:28;;;;;;;28.77;7.32;;;9.50;99.90;;;;;;5091760;28;20111;-62
2024/01/24 07:03:54;;;;;;;25.17;8.10;;;9.50;99.90;;;;;;5107772;28;20532;-61
2024/01/24 07:06:20;;;;;;;22.42;7.15;;;9.40;99.90;;;;;;5091261;28;20048;-62
2024/01/24 07:08:46;;;;;;;24.52;8.05;;;9.50;99.90;;;;;;5090619;28;20044;-62
2024/01/24 07:11:11;;;;;;;26.30;7.97;;;9.40;99.90;;;;;;5091099;28;20129;-61
2024/01/24 07:13:37;;;;;;;23.20;7.80;;;9.40;99.90;;;;;;5091313;28;20040;-62
2024/01/24 07:16:04;;;;;;;24.10;7.40;;;9.40;99.90;;;;;;5090933;28;20046;-62
2024/01/24 07:18:33;;;;;;;24.05;8.20;;;9.40;99.90;;;;;;5090567;28;20052;-62
2024/01/24 07:21:00;;;;;;;26.17;7.88;;;9.40;99.90;;;;;;5092532;28;20093;-62
2024/01/24 07:23:27;;;;;;;25.75;6.50;;;9.50;99.90;;;;;;5090817;28;20085;-62
2024/01/24 07:25:53;;;;;;;23.58;7.15;;;9.50;99.90;;;;;;5090836;28;20128;-62
2024/01/24 07:28:19;;;;;;;23.20;7.55;;;9.50;99.90;;;;;;5089983;28;20655;-62
2024/01/24 07:30:45;;;;;;;31.25;9.10;;;9.50;99.90;;;;;;5074079;28;20032;-62
2024/01/24 07:33:11;;;;;;;24.00;6.53;;;9.50;99.90;;;;;;5090803;28;20115;-61
2024/01/24 07:35:36;;;;;;;26.67;7.93;;;9.50;99.90;;;;;;5091752;28;20044;-62
2024/01/24 07:38:03;;;;;;;32.88;9.85;;;9.50;99.90;;;;;;5091205;28;20050;-62
2024/01/24 07:40:29;;;;;;;30.35;8.82;;;9.50;99.90;;;;;;5090839;28;20055;-62
2024/01/24 07:42:55;;;;;;;32.83;8.38;;;9.40;99.90;;;;;;5106974;28;20048;-62
2024/01/24 07:45:21;;;;;;;33.95;7.32;;;9.30;99.90;;;;;;5091717;28;20055;-61
2024/01/24 07:47:49;;;;;;;35.42;8.13;;;9.20;99.90;;;;;;5090956;28;20093;-62
2024/01/24 07:50:16;;;;;;;25.90;6.40;;;9.30;99.90;;;;;;5090141;28;20111;-62
2024/01/24 07:52:43;;;;;;;24.17;6.75;;;9.30;99.90;;;;;;5107758;28;20040;-62
2024/01/24 07:55:10;;;;;;;30.15;8.27;;;9.20;99.90;;;;;;5090593;28;20086;-62
2024/01/24 07:57:36;;;;;;;33.60;8.45;;;9.20;99.90;;;;;;5089961;28;20040;-62
2024/01/24 08:00:04;;;;;;;22.80;7.57;;;9.20;99.90;;;;;;5090647;28;20056;-62
2024/01/24 08:02:30;;;;;;;35.60;7.93;;;9.20;99.90;;;;;;5086937;28;20040;-62
2024/01/24 08:04:57;;;;;;;32.88;8.35;;;9.10;99.90;;;;;;5087446;28;20048;-62
2024/01/24 08:07:23;;;;;;;39.15;7.60;;;9.10;99.90;;;;;;5086849;28;20040;-62
2024/01/24 08:09:49;;;;;;;27.52;8.70;;;9.20;99.90;;;;;;5086737;28;20044;-62
2024/01/24 08:12:15;;;;;;;31.05;9.02;;;9.20;99.90;;;;;;5069364;28;20040;-62
2024/01/24 08:14:41;;;;;;;22.10;6.20;;;9.20;99.90;;;;;;5087654;28;20093;-62
2024/01/24 08:17:10;;;;;;;30.92;7.07;;;9.30;99.90;;;;;;5088394;28;20485;-62
2024/01/24 08:19:38;;;;;;;23.15;6.80;;;9.30;99.90;;;;;;5087364;28;20083;-62
2024/01/24 08:22:04;;;;;;;28.25;7.97;;;9.30;99.90;;;;;;5071513;28;20040;-62
2024/01/24 08:24:32;;;;;;;27.15;7.57;;;9.20;99.90;;;;;;5087154;28;20679;-62
2024/01/24 08:26:58;;;;;;;22.67;8.02;;;9.30;99.90;;;;;;5088125;28;20048;-62
2024/01/24 08:29:27;;;;;;;23.77;6.75;;;9.30;99.90;;;;;;5088268;28;20083;-62
2024/01/24 08:31:56;;;;;;;36.28;7.80;;;9.30;99.90;;;;;;5087472;28;20055;-62
2024/01/24 08:34:22;;;;;;;26.90;7.03;;;9.30;99.90;;;;;;5087928;28;20087;-63
2024/01/24 08:36:47;;;;;;;22.67;6.10;;;9.30;99.90;;;;;;5071424;28;20072;-62
2024/01/24 08:39:14;;;;;;;25.88;8.98;;;9.30;99.90;;;;;;5087317;28;20048;-62
2024/01/24 08:41:40;;;;;;;25.95;7.82;;;9.30;99.90;;;;;;5091627;28;20097;-62
2024/01/24 08:44:06;;;;;;;25.50;7.90;;;9.30;99.90;;;;;;5092307;28;20135;-62
2024/01/24 08:46:32;;;;;;;23.75;7.75;;;9.30;99.90;;;;;;5090737;28;20127;-63
2024/01/24 08:48:59;;;;;;;26.90;8.68;;;9.30;99.90;;;;;;5090562;28;20473;-62
2024/01/24 08:51:31;;;;;;;29.58;7.50;;;9.30;99.90;;;;;;5091488;28;20044;-62
2024/01/24 08:53:58;;;;;;;30.17;9.35;;;9.30;99.90;;;;;;5092762;28;20431;-62
2024/01/24 08:56:24;;;;;;;22.90;7.22;;;9.30;99.90;;;;;;5091400;28;20115;-62
2024/01/24 08:58:50;;;;;;;31.38;7.65;;;9.40;99.90;;;;;;5108379;28;20132;-62
2024/01/24 09:01:18;;;;;;;20.10;6.60;;;9.40;99.90;;;;;;5108009;28;20062;-62
2024/01/24 09:03:46;;;;;;;27.17;6.50;;;9.40;99.90;;;;;;5091964;28;20454;-63
2024/01/24 09:06:11;;;;;;;25.92;8.00;;;9.50;99.90;;;;;;5091246;28;20048;-62
2024/01/24 09:08:37;;;;;;;21.38;7.20;;;9.50;99.90;;;;;;5090608;28;20126;-62
2024/01/24 09:11:03;;;;;;;24.77;8.35;;;9.50;99.90;;;;;;5091508;28;20076;-62
2024/01/24 09:13:29;;;;;;;23.17;6.60;;;9.50;99.90;;;;;;5091301;28;20051;-62
2024/01/24 09:15:55;;;;;;;29.30;8.50;;;9.50;99.90;;;;;;5090799;28;20051;-63
2024/01/24 09:18:21;;;;;;;20.92;5.95;;;9.50;99.90;;;;;;5092633;28;20036;-62
2024/01/24 09:20:47;;;;;;;28.27;8.25;;;9.50;99.90;;;;;;5090150;28;20044;-62
2024/01/24 09:23:13;;;;;;;35.90;8.02;;;9.60;99.90;;;;;;5091030;28;20040;-62
2024/01/24 09:25:39;;;;;;;27.27;7.75;;;9.60;99.90;;;;;;5090845;28;20055;-62
2024/01/24 09:28:08;;;;;;;21.67;5.30;;;9.60;99.90;;;;;;5093347;28;20067;-62
2024/01/24 09:30:34;;;;;;;21.60;5.60;;;9.60;99.90;;;;;;5090699;28;20071;-62
2024/01/24 09:33:00;;;;;;;27.13;7.10;;;9.60;99.90;;;;;;5088455;28;20055;-62
2024/01/24 09:35:25;;;;;;;25.42;7.95;;;9.60;99.90;;;;;;5088376;28;20040;-62
2024/01/24 09:37:51;;;;;;;25.33;6.50;;;9.60;99.90;;;;;;5090211;28;20036;-62
2024/01/24 09:40:17;;;;;;;29.30;6.95;;;9.60;99.90;;;;;;5090713;28;20408;-61
2024/01/24 09:42:44;;;;;;;25.88;6.90;;;9.70;99.90;;;;;;5089808;28;20139;-62
2024/01/24 09:45:11;;;;;;;20.05;6.43;;;9.60;99.90;;;;;;5073566;28;20057;-62
2024/01/24 09:47:40;;;;;;;26.40;6.80;;;9.60;99.90;;;;;;5088922;28;20066;-63
2024/01/24 09:50:08;;;;;;;20.88;6.93;;;9.70;99.90;;;;;;5089297;28;20051;-62
2024/01/24 09:52:34;;;;;;;27.05;7.47;;;9.70;99.90;;;;;;5089970;28;20044;-62
2024/01/24 09:55:04;;;;;;;23.85;6.18;;;9.70;99.90;;;;;;5090775;28;20044;-62
2024/01/24 09:57:31;;;;;;;27.25;6.65;;;9.70;99.90;;;;;;5089284;28;20036;-62
2024/01/24 09:59:57;;;;;;;24.95;6.13;;;9.70;99.90;;;;;;5090248;28;20056;-62
2024/01/24 10:02:26;;;;;;;28.80;8.40;;;9.70;99.90;;;;;;5089695;28;20044;-62
2024/01/24 10:04:52;;;;;;;30.10;8.25;;;9.70;99.90;;;;;;5088671;28;20040;-62
2024/01/24 10:07:19;;;;;;;27.83;8.68;;;9.70;99.90;;;;;;5090292;28;20421;-62
2024/01/24 10:09:46;;;;;;;34.20;5.85;;;9.70;99.90;;;;;;5089919;28;20148;-62
2024/01/24 10:12:12;;;;;;;24.25;7.32;;;9.80;99.90;;;;;;5087734;28;20434;-62
2024/01/24 10:14:40;;;;;;;24.00;7.97;;;9.80;99.90;;;;;;5088550;28;20052;-61
2024/01/24 10:17:09;;;;;;;21.98;5.82;;;9.80;99.90;;;;;;5089324;28;20054;-62
2024/01/24 10:19:36;;;;;;;23.42;6.55;;;9.80;99.90;;;;;;5091151;28;20044;-62
2024/01/24 10:22:03;;;;;;;32.40;8.88;;;9.80;99.90;;;;;;5107133;28;20366;-62
2024/01/24 10:24:31;;;;;;;23.92;7.32;;;9.90;99.90;;;;;;5089132;28;20063;-61
2024/01/24 10:26:57;;;;;;;28.48;8.75;;;9.90;99.90;;;;;;5089273;28;20048;-62
2024/01/24 10:29:22;;;;;;;22.55;6.63;;;9.90;99.90;;;;;;5085823;28;20040;-61
2024/01/24 10:31:55;;;;;;;18.67;7.70;;;9.90;99.90;;;;;;5088553;28;20416;-61
2024/01/24 10:34:25;;;;;;;25.83;7.40;;;9.90;99.90;;;;;;5090807;28;20031;-62
2024/01/24 10:36:51;;;;;;;16.65;5.68;;;10.00;99.90;;;;;;5106629;28;20054;-62
2024/01/24 10:39:18;;;;;;;24.75;6.47;;;10.00;99.90;;;;;;5088523;28;20105;-62
2024/01/24 10:41:48;;;;;;;21.25;6.10;;;10.00;99.90;;;;;;5087774;28;20164;-62
2024/01/24 10:44:17;;;;;;;22.25;5.68;;;10.00;99.90;;;;;;5089045;28;20063;-62
2024/01/24 10:46:43;;;;;;;17.80;6.22;;;10.00;99.90;;;;;;5083045;28;20146;-62
2024/01/24 10:49:12;;;;;;;16.83;5.45;;;10.10;99.90;;;;;;5091629;28;20048;-62
2024/01/24 10:51:39;;;;;;;22.13;5.20;;;10.10;99.90;;;;;;5091539;28;20032;-62
2024/01/24 10:54:07;;;;;;;15.68;4.45;;;10.10;99.90;;;;;;5090781;28;20519;-62
2024/01/24 10:56:34;;;;;;;25.40;5.85;;;10.20;99.90;;;;;;5091543;28;20436;-63
2024/01/24 10:59:05;;;;;;;18.25;6.45;;;10.20;99.90;;;;;;5091335;28;20133;-63
2024/01/24 11:01:31;;;;;;;27.27;5.40;;;10.20;99.90;;;;;;5073660;28;20052;-62
2024/01/24 11:03:58;;;;;;;19.98;4.05;;;10.20;99.90;;;;;;5091050;28;20093;-63
2024/01/24 11:06:27;;;;;;;20.15;5.53;;;10.20;99.90;;;;;;5091051;28;20048;-63
2024/01/24 11:09:20;;;;;;;24.52;5.00;;;10.20;99.90;;;;;;5091154;28;20123;-63
2024/01/24 11:11:47;;;;;;;18.73;4.65;;;10.20;99.90;;;;;;5091361;28;20040;-62
2024/01/24 11:14:29;;;;;;;22.52;4.47;;;10.30;99.90;;;;;;5090029;28;20116;-62
2024/01/24 11:16:57;;;;;;;23.27;4.88;;;10.30;99.90;;;;;;5089213;28;20441;-62
2024/01/24 11:19:24;;;;;;;19.63;4.88;;;10.30;99.90;;;;;;5092328;28;20105;-63
2024/01/24 11:21:52;;;;;;;20.02;4.75;;;10.20;99.90;;;;;;5093886;28;20059;-63
2024/01/24 11:24:40;;;;;;;23.25;4.50;;;10.30;99.90;;;;;;5111277;28;20047;-62
2024/01/24 11:27:34;;;;;;;19.92;5.03;;;10.20;99.90;;;;;;5111545;28;20101;-63
2024/01/24 11:30:06;;;;;;;13.23;5.32;;;10.20;99.90;;;;;;5092609;28;20040;-62
2024/01/24 11:32:44;;;;;;;17.92;5.03;;;10.20;99.90;;;;;;5090541;28;20093;-62
2024/01/24 11:35:36;;;;;;;19.40;4.82;;;10.20;99.90;;;;;;5089207;28;20028;-62
2024/01/24 11:38:16;;;;;;;23.58;4.82;;;10.10;99.90;;;;;;5090709;28;20040;-62
2024/01/24 11:40:49;;;;;;;17.63;5.15;;;10.20;99.90;;;;;;5074284;28;20040;-63
2024/01/24 11:43:26;;;;;;;17.50;4.82;;;10.20;99.90;;;;;;5089698;28;20054;-62
2024/01/24 11:45:56;;;;;;;18.95;4.65;;;10.20;99.90;;;;;;5085475;28;20048;-62
2024/01/24 11:48:24;;;;;;;24.90;6.95;;;10.30;99.90;;;;;;5073595;28;20043;-62
2024/01/24 11:51:00;;;;;;;20.77;5.47;;;10.30;99.90;;;;;;5089044;28;20051;-62
2024/01/24 11:53:27;;;;;;;21.25;5.32;;;10.20;99.90;;;;;;5090083;28;20043;-62
2024/01/24 11:55:58;;;;;;;19.42;5.25;;;10.30;99.90;;;;;;5091086;28;20397;-62
2024/01/24 11:58:28;;;;;;;24.65;5.55;;;10.20;99.90;;;;;;5090471;28;20177;-62
2024/01/24 12:01:01;;;;;;;21.77;6.43;;;10.20;99.90;;;;;;5091210;28;20493;-62
2024/01/24 12:03:27;;;;;;;19.65;5.40;;;10.20;99.90;;;;;;5089695;28;20055;-62
2024/01/24 12:05:53;;;;;;;19.23;6.05;;;10.20;99.90;;;;;;5090519;28;20036;-62
2024/01/24 12:08:19;;;;;;;16.88;4.90;;;10.20;99.90;;;;;;5090685;28;20393;-62
2024/01/24 12:10:45;;;;;;;21.75;5.13;;;10.20;99.90;;;;;;5085110;28;20080;-62
2024/01/24 12:13:12;;;;;;;20.55;5.65;;;10.20;99.90;;;;;;5067052;28;20129;-62
2024/01/24 12:15:39;;;;;;;16.20;5.88;;;10.20;99.90;;;;;;5091810;28;20100;-62
2024/01/24 12:18:07;;;;;;;17.63;5.13;;;10.20;99.90;;;;;;5093248;28;20032;-62
2024/01/24 12:20:38;;;;;;;18.02;7.07;;;10.20;99.90;;;;;;5092449;28;20055;-62
2024/01/24 12:23:07;;;;;;;22.60;5.55;;;10.20;99.90;;;;;;5109521;28;20051;-62
2024/01/24 12:25:32;;;;;;;19.88;5.70;;;10.20;99.90;;;;;;5090513;28;20055;-62
2024/01/24 12:27:58;;;;;;;20.35;4.93;;;10.20;99.90;;;;;;5091329;28;20040;-63
2024/01/24 12:30:32;;;;;;;19.00;5.75;;;10.20;99.90;;;;;;5090675;28;20042;-62
2024/01/24 12:32:59;;;;;;;23.90;6.97;;;10.20;99.90;;;;;;5088540;28;20111;-63
2024/01/24 12:35:25;;;;;;;18.85;4.95;;;10.20;99.90;;;;;;5093998;28;20046;-63
2024/01/24 12:37:51;;;;;;;18.40;4.28;;;10.20;99.90;;;;;;5077214;28;20040;-62
2024/01/24 12:40:17;;;;;;;18.58;6.47;;;10.20;99.90;;;;;;5094311;28;20130;-63